sensor_id;sensor_type;location;lat;lon;timestamp;pressure;altitude;pressure_sealevel;temperature;humidity
34931;BME280;21134;49.646;8.560;2022-11-15T00:00:43;100291.72;;;9.84;100.00
34931;BME280;21134;49.646;8.560;2022-11-15T00:03:09;100287.47;;;9.80;100.00
34931;BME280;21134;49.646;8.560;2022-11-15T00:05:36;100289.16;;;9.81;100.00
34931;BME280;21134;49.646;8.560;2022-11-15T00:08:04;100290.84;;;9.79;100.00
34931;BME280;21134;49.646;8.560;2022-11-15T00:10:30;100291.75;;;9.76;100.00
34931;BME280;21134;49.646;8.560;2022-11-15T00:12:57;100294.28;;;9.76;100.00
34931;BME280;21134;49.646;8.560;2022-11-15T00:15:23;100291.75;;;9.80;100.00
34931;BME280;21134;49.646;8.560;2022-11-15T00:17:50;100288.31;;;9.87;100.00
34931;BME280;21134;49.646;8.560;2022-11-15T00:20:17;100287.47;;;9.89;100.00
34931;BME280;21134;49.646;8.560;2022-11-15T00:22:44;100278.09;;;9.93;100.00
34931;BME280;21134;49.646;8.560;2022-11-15T00:25:12;100283.19;;;9.96;98.91
34931;BME280;21134;49.646;8.560;2022-11-15T00:27:38;100279.78;;;9.97;99.33
34931;BME280;21134;49.646;8.560;2022-11-15T00:30:05;100278.91;;;9.98;99.24
34931;BME280;21134;49.646;8.560;2022-11-15T00:32:32;100274.63;;;9.98;98.30
34931;BME280;21134;49.646;8.560;2022-11-15T00:34:58;100272.97;;;9.99;99.04
34931;BME280;21134;49.646;8.560;2022-11-15T00:37:25;100273.78;;;9.98;98.74
34931;BME280;21134;49.646;8.560;2022-11-15T00:39:51;100273.81;;;10.02;98.59
34931;BME280;21134;49.646;8.560;2022-11-15T00:42:19;100262.69;;;10.08;98.43
34931;BME280;21134;49.646;8.560;2022-11-15T00:44:45;100265.28;;;10.05;99.47
34931;BME280;21134;49.646;8.560;2022-11-15T00:47:12;100272.94;;;10.07;98.07
34931;BME280;21134;49.646;8.560;2022-11-15T00:49:38;100266.09;;;10.13;97.31
34931;BME280;21134;49.646;8.560;2022-11-15T00:52:06;100266.94;;;10.14;98.07
34931;BME280;21134;49.646;8.560;2022-11-15T00:54:32;100268.66;;;10.13;97.13
34931;BME280;21134;49.646;8.560;2022-11-15T00:56:59;100262.66;;;10.17;97.09
34931;BME280;21134;49.646;8.560;2022-11-15T00:59:26;100257.56;;;10.17;97.38
34931;BME280;21134;49.646;8.560;2022-11-15T01:01:53;100254.16;;;10.15;97.24
34931;BME280;21134;49.646;8.560;2022-11-15T01:04:19;100255.88;;;10.13;96.73
34931;BME280;21134;49.646;8.560;2022-11-15T01:06:46;100249.91;;;10.11;97.54
34931;BME280;21134;49.646;8.560;2022-11-15T01:09:13;100251.63;;;10.08;97.45
34931;BME280;21134;49.646;8.560;2022-11-15T01:11:39;100243.09;;;10.07;97.78
34931;BME280;21134;49.646;8.560;2022-11-15T01:14:06;100248.22;;;10.10;97.29
34931;BME280;21134;49.646;8.560;2022-11-15T01:16:34;100236.28;;;10.11;97.43
34931;BME280;21134;49.646;8.560;2022-11-15T01:19:01;100232.00;;;10.13;97.01
34931;BME280;21134;49.646;8.560;2022-11-15T01:21:27;100232.88;;;10.12;97.08
34931;BME280;21134;49.646;8.560;2022-11-15T01:23:54;100233.72;;;10.12;96.57
34931;BME280;21134;49.646;8.560;2022-11-15T01:26:21;100241.38;;;10.11;96.34
34931;BME280;21134;49.646;8.560;2022-11-15T01:28:48;100234.56;;;10.08;97.15
34931;BME280;21134;49.646;8.560;2022-11-15T01:31:17;100232.00;;;10.13;96.40
34931;BME280;21134;49.646;8.560;2022-11-15T01:33:46;100231.16;;;10.18;96.13
34931;BME280;21134;49.646;8.560;2022-11-15T01:36:15;100229.41;;;10.20;95.90
34931;BME280;21134;49.646;8.560;2022-11-15T01:38:42;100232.84;;;10.27;96.14
34931;BME280;21134;49.646;8.560;2022-11-15T01:41:15;100236.22;;;10.35;95.00
34931;BME280;21134;49.646;8.560;2022-11-15T01:43:41;100232.81;;;10.38;94.53
34931;BME280;21134;49.646;8.560;2022-11-15T01:46:21;100231.09;;;10.41;94.83
34931;BME280;21134;49.646;8.560;2022-11-15T01:48:52;100232.75;;;10.45;94.39
34931;BME280;21134;49.646;8.560;2022-11-15T01:51:21;100231.91;;;10.45;94.79
34931;BME280;21134;49.646;8.560;2022-11-15T01:53:53;100230.22;;;10.47;95.06
34931;BME280;21134;49.646;8.560;2022-11-15T01:56:24;100226.81;;;10.45;95.08
34931;BME280;21134;49.646;8.560;2022-11-15T01:58:53;100231.09;;;10.41;95.42
34931;BME280;21134;49.646;8.560;2022-11-15T02:01:22;100222.56;;;10.36;95.26
34931;BME280;21134;49.646;8.560;2022-11-15T02:03:54;100225.16;;;10.35;95.25
34931;BME280;21134;49.646;8.560;2022-11-15T02:06:23;100209.81;;;10.32;95.12
34931;BME280;21134;49.646;8.560;2022-11-15T02:08:50;100209.81;;;10.29;95.03
34931;BME280;21134;49.646;8.560;2022-11-15T02:11:17;100205.56;;;10.23;95.48
34931;BME280;21134;49.646;8.560;2022-11-15T02:13:44;100202.16;;;10.16;95.55
34931;BME280;21134;49.646;8.560;2022-11-15T02:16:15;100206.47;;;10.10;96.19
34931;BME280;21134;49.646;8.560;2022-11-15T02:18:49;100203.06;;;10.01;96.47
34931;BME280;21134;49.646;8.560;2022-11-15T02:21:26;100198.84;;;9.93;97.14
34931;BME280;21134;49.646;8.560;2022-11-15T02:24:23;100187.81;;;9.86;97.71
34931;BME280;21134;49.646;8.560;2022-11-15T02:30:21;100180.19;;;9.65;98.55
34931;BME280;21134;49.646;8.560;2022-11-15T02:32:51;100175.94;;;9.61;98.76
34931;BME280;21134;49.646;8.560;2022-11-15T02:35:26;100180.19;;;9.57;98.41
34931;BME280;21134;49.646;8.560;2022-11-15T02:37:57;100176.78;;;9.53;98.76
34931;BME280;21134;49.646;8.560;2022-11-15T02:40:31;100174.25;;;9.55;98.67
34931;BME280;21134;49.646;8.560;2022-11-15T02:43:06;100174.25;;;9.64;98.41
34931;BME280;21134;49.646;8.560;2022-11-15T02:46:00;100178.50;;;9.64;97.66
34931;BME280;21134;49.646;8.560;2022-11-15T02:48:29;100168.28;;;9.59;97.89
34931;BME280;21134;49.646;8.560;2022-11-15T02:50:58;100167.41;;;9.60;97.89
34931;BME280;21134;49.646;8.560;2022-11-15T02:53:25;100159.78;;;9.55;98.37
34931;BME280;21134;49.646;8.560;2022-11-15T02:55:53;100155.53;;;9.50;98.40
34931;BME280;21134;49.646;8.560;2022-11-15T02:58:48;100153.81;;;9.44;99.14
34931;BME280;21134;49.646;8.560;2022-11-15T03:01:31;100153.84;;;9.40;99.61
34931;BME280;21134;49.646;8.560;2022-11-15T03:04:08;100153.88;;;9.38;99.48
34931;BME280;21134;49.646;8.560;2022-11-15T03:06:45;100153.88;;;9.38;100.00
34931;BME280;21134;49.646;8.560;2022-11-15T03:09:21;100150.44;;;9.36;100.00
34931;BME280;21134;49.646;8.560;2022-11-15T03:11:56;100147.06;;;9.36;100.00
34931;BME280;21134;49.646;8.560;2022-11-15T03:14:29;100144.50;;;9.36;100.00
34931;BME280;21134;49.646;8.560;2022-11-15T03:17:02;100148.75;;;9.34;100.00
34931;BME280;21134;49.646;8.560;2022-11-15T03:19:36;100149.59;;;9.32;100.00
34931;BME280;21134;49.646;8.560;2022-11-15T03:22:07;100153.88;;;9.32;100.00
34931;BME280;21134;49.646;8.560;2022-11-15T03:24:37;100153.00;;;9.35;100.00
34931;BME280;21134;49.646;8.560;2022-11-15T03:27:06;100153.00;;;9.38;100.00
34931;BME280;21134;49.646;8.560;2022-11-15T03:29:36;100153.88;;;9.38;100.00
34931;BME280;21134;49.646;8.560;2022-11-15T03:32:09;100147.88;;;9.38;100.00
34931;BME280;21134;49.646;8.560;2022-11-15T03:34:39;100147.88;;;9.38;100.00
34931;BME280;21134;49.646;8.560;2022-11-15T03:37:08;100151.28;;;9.40;100.00
34931;BME280;21134;49.646;8.560;2022-11-15T03:39:36;100149.59;;;9.42;100.00
34931;BME280;21134;49.646;8.560;2022-11-15T03:42:10;100150.44;;;9.42;100.00
34931;BME280;21134;49.646;8.560;2022-11-15T03:44:43;100152.13;;;9.43;100.00
34931;BME280;21134;49.646;8.560;2022-11-15T03:47:17;100147.88;;;9.44;100.00
34931;BME280;21134;49.646;8.560;2022-11-15T03:49:50;100153.81;;;9.44;100.00
34931;BME280;21134;49.646;8.560;2022-11-15T03:52:18;100157.25;;;9.45;100.00
34931;BME280;21134;49.646;8.560;2022-11-15T03:54:50;100151.25;;;9.47;100.00
34931;BME280;21134;49.646;8.560;2022-11-15T03:57:17;100147.88;;;9.48;100.00
34931;BME280;21134;49.646;8.560;2022-11-15T03:59:43;100151.28;;;9.49;100.00
34931;BME280;21134;49.646;8.560;2022-11-15T04:02:10;100151.25;;;9.50;100.00
34931;BME280;21134;49.646;8.560;2022-11-15T04:04:38;100147.00;;;9.52;100.00
34931;BME280;21134;49.646;8.560;2022-11-15T04:07:04;100148.72;;;9.52;100.00
34931;BME280;21134;49.646;8.560;2022-11-15T04:09:31;100145.31;;;9.53;100.00
34931;BME280;21134;49.646;8.560;2022-11-15T04:11:58;100155.53;;;9.51;100.00
34931;BME280;21134;49.646;8.560;2022-11-15T04:14:24;100152.13;;;9.51;100.00
34931;BME280;21134;49.646;8.560;2022-11-15T04:16:50;100147.88;;;9.51;100.00
34931;BME280;21134;49.646;8.560;2022-11-15T04:19:17;100147.84;;;9.50;100.00
34931;BME280;21134;49.646;8.560;2022-11-15T04:22:01;100147.88;;;9.51;100.00
34931;BME280;21134;49.646;8.560;2022-11-15T04:24:46;100156.38;;;9.53;100.00
34931;BME280;21134;49.646;8.560;2022-11-15T04:27:12;100154.69;;;9.54;100.00
34931;BME280;21134;49.646;8.560;2022-11-15T04:29:39;100163.19;;;9.54;100.00
34931;BME280;21134;49.646;8.560;2022-11-15T04:32:06;100152.97;;;9.56;100.00
34931;BME280;21134;49.646;8.560;2022-11-15T04:34:33;100143.59;;;9.58;100.00
34931;BME280;21134;49.646;8.560;2022-11-15T04:37:01;100145.31;;;9.58;100.00
34931;BME280;21134;49.646;8.560;2022-11-15T04:39:42;100147.88;;;9.58;100.00
34931;BME280;21134;49.646;8.560;2022-11-15T04:42:09;100149.56;;;9.59;100.00
34931;BME280;21134;49.646;8.560;2022-11-15T04:44:35;100140.19;;;9.59;100.00
34931;BME280;21134;49.646;8.560;2022-11-15T04:47:03;100145.28;;;9.59;100.00
34931;BME280;21134;49.646;8.560;2022-11-15T04:49:29;100146.13;;;9.60;100.00
34931;BME280;21134;49.646;8.560;2022-11-15T04:51:56;100141.03;;;9.60;100.00
34931;BME280;21134;49.646;8.560;2022-11-15T04:54:24;100143.59;;;9.61;100.00
34931;BME280;21134;49.646;8.560;2022-11-15T04:56:50;100135.94;;;9.61;100.00
34931;BME280;21134;49.646;8.560;2022-11-15T04:59:17;100129.97;;;9.62;100.00
34931;BME280;21134;49.646;8.560;2022-11-15T05:01:43;100139.31;;;9.63;100.00
34931;BME280;21134;49.646;8.560;2022-11-15T05:04:10;100125.69;;;9.63;100.00
34931;BME280;21134;49.646;8.560;2022-11-15T05:06:44;100123.13;;;9.63;100.00
34931;BME280;21134;49.646;8.560;2022-11-15T05:09:11;100118.88;;;9.63;100.00
34931;BME280;21134;49.646;8.560;2022-11-15T05:11:40;100123.13;;;9.63;100.00
34931;BME280;21134;49.646;8.560;2022-11-15T05:14:07;100118.03;;;9.63;100.00
34931;BME280;21134;49.646;8.560;2022-11-15T05:16:33;100118.03;;;9.63;100.00
34931;BME280;21134;49.646;8.560;2022-11-15T05:19:00;100112.06;;;9.62;100.00
34931;BME280;21134;49.646;8.560;2022-11-15T05:21:27;100110.38;;;9.61;100.00
34931;BME280;21134;49.646;8.560;2022-11-15T05:23:53;100113.78;;;9.62;100.00
34931;BME280;21134;49.646;8.560;2022-11-15T05:26:19;100106.97;;;9.62;100.00
34931;BME280;21134;49.646;8.560;2022-11-15T05:28:52;100107.84;;;9.61;100.00
34931;BME280;21134;49.646;8.560;2022-11-15T05:31:18;100106.97;;;9.62;100.00
34931;BME280;21134;49.646;8.560;2022-11-15T05:33:45;100103.56;;;9.62;100.00
34931;BME280;21134;49.646;8.560;2022-11-15T05:36:16;100103.56;;;9.60;100.00
34931;BME280;21134;49.646;8.560;2022-11-15T05:38:45;100112.94;;;9.60;100.00
34931;BME280;21134;49.646;8.560;2022-11-15T05:41:12;100118.91;;;9.59;100.00
34931;BME280;21134;49.646;8.560;2022-11-15T05:43:40;100112.94;;;9.60;100.00
34931;BME280;21134;49.646;8.560;2022-11-15T05:46:09;100103.56;;;9.59;100.00
34931;BME280;21134;49.646;8.560;2022-11-15T05:48:37;100096.78;;;9.61;100.00
34931;BME280;21134;49.646;8.560;2022-11-15T05:51:06;100088.22;;;9.60;100.00
34931;BME280;21134;49.646;8.560;2022-11-15T05:53:35;100092.50;;;9.60;100.00
34931;BME280;21134;49.646;8.560;2022-11-15T05:56:03;100100.16;;;9.60;100.00
34931;BME280;21134;49.646;8.560;2022-11-15T05:58:31;100109.53;;;9.61;100.00
34931;BME280;21134;49.646;8.560;2022-11-15T06:00:58;100109.53;;;9.61;100.00
34931;BME280;21134;49.646;8.560;2022-11-15T06:03:26;100095.91;;;9.62;100.00
34931;BME280;21134;49.646;8.560;2022-11-15T06:05:52;100104.41;;;9.62;100.00
34931;BME280;21134;49.646;8.560;2022-11-15T06:08:19;100099.31;;;9.64;100.00
34931;BME280;21134;49.646;8.560;2022-11-15T06:10:45;100097.59;;;9.63;100.00
34931;BME280;21134;49.646;8.560;2022-11-15T06:13:12;100089.94;;;9.61;100.00
34931;BME280;21134;49.646;8.560;2022-11-15T06:15:38;100094.22;;;9.61;100.00
34931;BME280;21134;49.646;8.560;2022-11-15T06:18:05;100091.66;;;9.61;100.00
34931;BME280;21134;49.646;8.560;2022-11-15T06:20:33;100101.00;;;9.60;100.00
34931;BME280;21134;49.646;8.560;2022-11-15T06:23:01;100092.50;;;9.60;100.00
34931;BME280;21134;49.646;8.560;2022-11-15T06:25:29;100091.66;;;9.61;100.00
34931;BME280;21134;49.646;8.560;2022-11-15T06:27:57;100100.19;;;9.58;100.00
34931;BME280;21134;49.646;8.560;2022-11-15T06:30:25;100106.13;;;9.57;100.00
34931;BME280;21134;49.646;8.560;2022-11-15T06:32:58;100111.25;;;9.55;100.00
34931;BME280;21134;49.646;8.560;2022-11-15T06:35:25;100118.91;;;9.52;100.00
34931;BME280;21134;49.646;8.560;2022-11-15T06:37:53;100118.94;;;9.49;100.00
34931;BME280;21134;49.646;8.560;2022-11-15T06:40:19;100120.63;;;9.49;100.00
34931;BME280;21134;49.646;8.560;2022-11-15T06:42:46;100125.72;;;9.47;100.00
34931;BME280;21134;49.646;8.560;2022-11-15T06:45:12;100130.84;;;9.47;100.00
34931;BME280;21134;49.646;8.560;2022-11-15T06:47:44;100120.63;;;9.49;100.00
34931;BME280;21134;49.646;8.560;2022-11-15T06:50:11;100113.81;;;9.49;100.00
34931;BME280;21134;49.646;8.560;2022-11-15T06:52:37;100119.78;;;9.50;100.00
34931;BME280;21134;49.646;8.560;2022-11-15T06:55:07;100118.94;;;9.51;100.00
34931;BME280;21134;49.646;8.560;2022-11-15T06:57:34;100109.56;;;9.51;100.00
34931;BME280;21134;49.646;8.560;2022-11-15T07:00:00;100111.25;;;9.52;100.00
34931;BME280;21134;49.646;8.560;2022-11-15T07:02:27;100109.56;;;9.54;100.00
34931;BME280;21134;49.646;8.560;2022-11-15T07:04:54;100110.38;;;9.53;100.00
34931;BME280;21134;49.646;8.560;2022-11-15T07:07:20;100119.78;;;9.54;100.00
34931;BME280;21134;49.646;8.560;2022-11-15T07:09:46;100116.34;;;9.59;100.00
34931;BME280;21134;49.646;8.560;2022-11-15T07:12:14;100111.22;;;9.62;100.00
34931;BME280;21134;49.646;8.560;2022-11-15T07:14:41;100100.16;;;9.64;100.00
34931;BME280;21134;49.646;8.560;2022-11-15T07:17:07;100100.97;;;9.66;100.00
34931;BME280;21134;49.646;8.560;2022-11-15T07:19:34;100101.00;;;9.68;100.00
34931;BME280;21134;49.646;8.560;2022-11-15T07:22:00;100098.41;;;9.72;100.00
34931;BME280;21134;49.646;8.560;2022-11-15T07:24:27;100097.56;;;9.76;100.00
34931;BME280;21134;49.646;8.560;2022-11-15T07:26:53;100105.22;;;9.80;100.00
34931;BME280;21134;49.646;8.560;2022-11-15T07:29:21;100100.94;;;9.86;100.00
34931;BME280;21134;49.646;8.560;2022-11-15T07:31:49;100104.31;;;9.88;100.00
34931;BME280;21134;49.646;8.560;2022-11-15T07:34:16;100106.03;;;9.89;100.00
34931;BME280;21134;49.646;8.560;2022-11-15T07:36:42;100096.66;;;9.90;100.00
34931;BME280;21134;49.646;8.560;2022-11-15T07:39:09;100104.31;;;9.93;100.00
34931;BME280;21134;49.646;8.560;2022-11-15T07:41:37;100108.53;;;9.95;100.00
34931;BME280;21134;49.646;8.560;2022-11-15T07:44:03;100105.97;;;9.98;100.00
34931;BME280;21134;49.646;8.560;2022-11-15T07:46:32;100109.38;;;10.00;100.00
34931;BME280;21134;49.646;8.560;2022-11-15T07:48:58;100109.34;;;10.04;100.00
34931;BME280;21134;49.646;8.560;2022-11-15T07:51:25;100113.59;;;10.05;100.00
34931;BME280;21134;49.646;8.560;2022-11-15T07:53:51;100117.84;;;10.07;100.00
34931;BME280;21134;49.646;8.560;2022-11-15T07:56:18;100120.41;;;10.10;100.00
34931;BME280;21134;49.646;8.560;2022-11-15T07:58:46;100115.25;;;10.16;100.00
34931;BME280;21134;49.646;8.560;2022-11-15T08:01:12;100123.75;;;10.20;100.00
34931;BME280;21134;49.646;8.560;2022-11-15T08:03:40;100122.03;;;10.23;100.00
34931;BME280;21134;49.646;8.560;2022-11-15T08:06:06;100114.34;;;10.33;100.00
34931;BME280;21134;49.646;8.560;2022-11-15T08:08:33;100115.19;;;10.30;100.00
34931;BME280;21134;49.646;8.560;2022-11-15T08:11:00;100110.97;;;10.31;100.00
34931;BME280;21134;49.646;8.560;2022-11-15T08:13:26;100112.63;;;10.35;100.00
34931;BME280;21134;49.646;8.560;2022-11-15T08:15:57;100109.19;;;10.39;100.00
34931;BME280;21134;49.646;8.560;2022-11-15T08:18:23;100111.72;;;10.42;100.00
34931;BME280;21134;49.646;8.560;2022-11-15T08:20:51;100110.88;;;10.41;100.00
34931;BME280;21134;49.646;8.560;2022-11-15T08:23:18;100112.56;;;10.42;100.00
34931;BME280;21134;49.646;8.560;2022-11-15T08:25:44;100115.97;;;10.44;100.00
34931;BME280;21134;49.646;8.560;2022-11-15T08:28:11;100106.59;;;10.46;100.00
34931;BME280;21134;49.646;8.560;2022-11-15T08:30:38;100112.50;;;10.52;100.00
34931;BME280;21134;49.646;8.560;2022-11-15T08:33:10;100112.50;;;10.53;100.00
34931;BME280;21134;49.646;8.560;2022-11-15T08:35:37;100103.94;;;10.57;100.00
34931;BME280;21134;49.646;8.560;2022-11-15T08:38:04;100099.69;;;10.58;100.00
34931;BME280;21134;49.646;8.560;2022-11-15T08:40:31;100097.13;;;10.59;100.00
34931;BME280;21134;49.646;8.560;2022-11-15T08:42:57;100093.69;;;10.60;100.00
34931;BME280;21134;49.646;8.560;2022-11-15T08:45:27;100097.06;;;10.64;100.00
34931;BME280;21134;49.646;8.560;2022-11-15T08:47:54;100087.66;;;10.67;100.00
34931;BME280;21134;49.646;8.560;2022-11-15T08:50:20;100091.88;;;10.73;100.00
34931;BME280;21134;49.646;8.560;2022-11-15T08:52:47;100082.44;;;10.78;100.00
34931;BME280;21134;49.646;8.560;2022-11-15T08:55:15;100087.53;;;10.83;100.00
34931;BME280;21134;49.646;8.560;2022-11-15T08:57:41;100092.63;;;10.86;100.00
34931;BME280;21134;49.646;8.560;2022-11-15T09:00:11;100090.88;;;10.91;100.00
34931;BME280;21134;49.646;8.560;2022-11-15T09:02:37;100093.38;;;10.97;100.00
34931;BME280;21134;49.646;8.560;2022-11-15T09:05:05;100091.63;;;11.01;100.00
34931;BME280;21134;49.646;8.560;2022-11-15T09:07:32;100094.13;;;11.07;100.00
34931;BME280;21134;49.646;8.560;2022-11-15T09:09:58;100087.31;;;11.07;100.00
34931;BME280;21134;49.646;8.560;2022-11-15T09:12:26;100083.88;;;11.07;100.00
34931;BME280;21134;49.646;8.560;2022-11-15T09:14:53;100082.22;;;11.07;100.00
34931;BME280;21134;49.646;8.560;2022-11-15T09:17:19;100081.34;;;11.08;100.00
34931;BME280;21134;49.646;8.560;2022-11-15T09:19:46;100088.16;;;11.11;100.00
34931;BME280;21134;49.646;8.560;2022-11-15T09:22:12;100077.00;;;11.13;100.00
34931;BME280;21134;49.646;8.560;2022-11-15T09:24:39;100075.28;;;11.17;100.00
34931;BME280;21134;49.646;8.560;2022-11-15T09:27:05;100075.28;;;11.17;100.00
34931;BME280;21134;49.646;8.560;2022-11-15T09:29:33;100076.97;;;11.18;100.00
34931;BME280;21134;49.646;8.560;2022-11-15T09:32:00;100083.78;;;11.21;100.00
34931;BME280;21134;49.646;8.560;2022-11-15T09:34:26;100077.78;;;11.23;100.00
34931;BME280;21134;49.646;8.560;2022-11-15T09:36:53;100084.56;;;11.26;100.00
34931;BME280;21134;49.646;8.560;2022-11-15T09:39:19;100085.38;;;11.29;100.00
34931;BME280;21134;49.646;8.560;2022-11-15T09:42:20;100089.63;;;11.32;100.00
34931;BME280;21134;49.646;8.560;2022-11-15T09:44:59;100088.72;;;11.37;100.00
34931;BME280;21134;49.646;8.560;2022-11-15T09:50:31;100080.84;;;11.56;100.00
34931;BME280;21134;49.646;8.560;2022-11-15T09:52:58;100079.06;;;11.59;100.00
34931;BME280;21134;49.646;8.560;2022-11-15T09:55:32;100075.59;;;11.65;100.00
34931;BME280;21134;49.646;8.560;2022-11-15T09:58:03;100073.81;;;11.70;100.00
34931;BME280;21134;49.646;8.560;2022-11-15T10:00:37;100066.91;;;11.75;100.00
34931;BME280;21134;49.646;8.560;2022-11-15T10:03:11;100071.09;;;11.82;100.00
34931;BME280;21134;49.646;8.560;2022-11-15T10:05:40;100071.09;;;11.87;100.00
34931;BME280;21134;49.646;8.560;2022-11-15T10:08:16;100070.97;;;11.93;100.00
34931;BME280;21134;49.646;8.560;2022-11-15T10:10:49;100061.56;;;11.97;100.00
34931;BME280;21134;49.646;8.560;2022-11-15T10:13:22;100063.19;;;12.01;100.00
34931;BME280;21134;49.646;8.560;2022-11-15T10:15:51;100054.50;;;12.11;100.00
34931;BME280;21134;49.646;8.560;2022-11-15T10:18:23;100045.00;;;12.19;100.00
34931;BME280;21134;49.646;8.560;2022-11-15T10:20:58;100043.22;;;12.23;100.00
34931;BME280;21134;49.646;8.560;2022-11-15T10:23:26;100040.53;;;12.30;100.00
34931;BME280;21134;49.646;8.560;2022-11-15T10:25:55;100039.56;;;12.38;100.00
34931;BME280;21134;49.646;8.560;2022-11-15T10:28:27;100032.72;;;12.38;100.00
34931;BME280;21134;49.646;8.560;2022-11-15T10:30:56;100038.72;;;12.39;100.00
34931;BME280;21134;49.646;8.560;2022-11-15T10:33:26;100044.53;;;12.48;100.00
34931;BME280;21134;49.646;8.560;2022-11-15T10:36:14;100041.84;;;12.57;99.69
34931;BME280;21134;49.646;8.560;2022-11-15T10:38:52;100040.16;;;12.53;100.00
34931;BME280;21134;49.646;8.560;2022-11-15T10:41:21;100029.09;;;12.51;100.00
34931;BME280;21134;49.646;8.560;2022-11-15T10:44:08;100031.66;;;12.50;100.00
34931;BME280;21134;49.646;8.560;2022-11-15T10:46:40;100023.13;;;12.49;100.00
34931;BME280;21134;49.646;8.560;2022-11-15T10:49:13;100020.47;;;12.55;99.81
34931;BME280;21134;49.646;8.560;2022-11-15T10:51:42;100019.47;;;12.64;97.97
34931;BME280;21134;49.646;8.560;2022-11-15T10:54:11;100010.00;;;12.66;97.49
34931;BME280;21134;49.646;8.560;2022-11-15T10:56:39;100008.16;;;12.74;95.66
34931;BME280;21134;49.646;8.560;2022-11-15T10:59:15;99999.53;;;12.78;95.99
34931;BME280;21134;49.646;8.560;2022-11-15T11:01:47;99995.19;;;12.82;95.70
34931;BME280;21134;49.646;8.560;2022-11-15T11:04:14;99989.97;;;12.87;95.52
34931;BME280;21134;49.646;8.560;2022-11-15T11:06:49;99986.50;;;12.89;94.90
34931;BME280;21134;49.646;8.560;2022-11-15T11:09:27;99982.94;;;12.96;94.64
34931;BME280;21134;49.646;8.560;2022-11-15T11:11:54;99978.44;;;13.08;93.79
34931;BME280;21134;49.646;8.560;2022-11-15T11:14:22;99974.06;;;13.13;93.26
34931;BME280;21134;49.646;8.560;2022-11-15T11:16:54;99975.84;;;13.09;92.88
34931;BME280;21134;49.646;8.560;2022-11-15T11:19:39;99966.47;;;13.08;93.29
34931;BME280;21134;49.646;8.560;2022-11-15T11:22:17;99957.59;;;13.23;91.57
34931;BME280;21134;49.646;8.560;2022-11-15T11:24:53;99959.34;;;13.21;91.50
34931;BME280;21134;49.646;8.560;2022-11-15T11:27:36;99952.50;;;13.21;91.19
34931;BME280;21134;49.646;8.560;2022-11-15T11:30:09;99948.97;;;13.27;91.12
34931;BME280;21134;49.646;8.560;2022-11-15T11:32:49;99949.53;;;13.40;89.39
34931;BME280;21134;49.646;8.560;2022-11-15T11:35:23;99943.56;;;13.41;89.33
34931;BME280;21134;49.646;8.560;2022-11-15T11:37:52;99942.78;;;13.37;89.21
34931;BME280;21134;49.646;8.560;2022-11-15T11:40:29;99943.50;;;13.42;89.83
34931;BME280;21134;49.646;8.560;2022-11-15T11:43:00;99936.38;;;13.55;89.79
34931;BME280;21134;49.646;8.560;2022-11-15T11:45:45;99942.28;;;13.60;88.56
34931;BME280;21134;49.646;8.560;2022-11-15T11:48:23;99926.72;;;13.66;86.92
34931;BME280;21134;49.646;8.560;2022-11-15T11:50:53;99922.69;;;13.55;87.66
34931;BME280;21134;49.646;8.560;2022-11-15T11:53:28;99926.84;;;13.59;88.50
34931;BME280;21134;49.646;8.560;2022-11-15T11:56:02;99930.88;;;13.70;87.88
34931;BME280;21134;49.646;8.560;2022-11-15T11:58:36;99920.84;;;13.60;87.83
34931;BME280;21134;49.646;8.560;2022-11-15T12:01:16;99911.50;;;13.57;88.00
34931;BME280;21134;49.646;8.560;2022-11-15T12:03:48;99908.59;;;13.71;87.99
34931;BME280;21134;49.646;8.560;2022-11-15T12:06:23;99911.38;;;13.62;87.68
34931;BME280;21134;49.646;8.560;2022-11-15T12:08:58;99895.03;;;13.64;87.74
34931;BME280;21134;49.646;8.560;2022-11-15T12:11:32;99891.50;;;13.68;86.08
34931;BME280;21134;49.646;8.560;2022-11-15T12:14:04;99896.91;;;13.58;86.90
34931;BME280;21134;49.646;8.560;2022-11-15T12:16:32;99881.41;;;13.61;87.25
34931;BME280;21134;49.646;8.560;2022-11-15T12:19:03;99864.88;;;13.71;86.04
34931;BME280;21134;49.646;8.560;2022-11-15T12:21:36;99872.38;;;13.80;85.30
34931;BME280;21134;49.646;8.560;2022-11-15T12:24:11;99865.66;;;13.75;86.42
34931;BME280;21134;49.646;8.560;2022-11-15T12:26:41;99865.69;;;13.73;86.62
34931;BME280;21134;49.646;8.560;2022-11-15T12:29:16;99864.16;;;13.66;87.31
34931;BME280;21134;49.646;8.560;2022-11-15T12:31:47;99859.75;;;13.71;86.85
34931;BME280;21134;49.646;8.560;2022-11-15T12:34:35;99850.19;;;13.76;85.87
34931;BME280;21134;49.646;8.560;2022-11-15T12:37:33;99839.31;;;13.65;85.86
34931;BME280;21134;49.646;8.560;2022-11-15T12:40:15;99845.53;;;13.56;86.77
34931;BME280;21134;49.646;8.560;2022-11-15T12:42:58;99841.56;;;13.79;86.11
34931;BME280;21134;49.646;8.560;2022-11-15T12:45:27;99841.66;;;13.74;86.35
34931;BME280;21134;49.646;8.560;2022-11-15T12:50:58;99840.09;;;13.68;86.96
34931;BME280;21134;49.646;8.560;2022-11-15T12:53:26;99839.28;;;13.66;86.98
34931;BME280;21134;49.646;8.560;2022-11-15T12:56:09;99843.75;;;13.58;88.25
34931;BME280;21134;49.646;8.560;2022-11-15T12:58:45;99838.47;;;13.64;87.71
34931;BME280;21134;49.646;8.560;2022-11-15T13:04:22;99838.69;;;13.57;87.56
34931;BME280;21134;49.646;8.560;2022-11-15T13:06:53;99829.38;;;13.51;88.48
34931;BME280;21134;49.646;8.560;2022-11-15T13:09:52;99835.34;;;13.53;88.29
34931;BME280;21134;49.646;8.560;2022-11-15T13:12:50;99834.50;;;13.51;87.48
34931;BME280;21134;49.646;8.560;2022-11-15T13:15:37;99831.13;;;13.49;87.81
34931;BME280;21134;49.646;8.560;2022-11-15T13:18:38;99821.53;;;13.56;87.30